sensor_id;sensor_type;location;lat;lon;timestamp;temperature;humidity
73777;DHT22;62088;50.240;2.696;2023-02-15T00:02:00;3.00;76.20
73777;DHT22;62088;50.240;2.696;2023-02-15T00:04:28;3.00;76.30
73777;DHT22;62088;50.240;2.696;2023-02-15T00:07:17;3.00;76.40
73777;DHT22;62088;50.240;2.696;2023-02-15T00:09:46;2.90;76.50
73777;DHT22;62088;50.240;2.696;2023-02-15T00:12:14;2.90;76.50
73777;DHT22;62088;50.240;2.696;2023-02-15T00:14:41;2.90;76.60
73777;DHT22;62088;50.240;2.696;2023-02-15T00:17:09;2.90;76.60
73777;DHT22;62088;50.240;2.696;2023-02-15T00:19:36;2.90;76.60
73777;DHT22;62088;50.240;2.696;2023-02-15T00:22:03;2.90;76.60
73777;DHT22;62088;50.240;2.696;2023-02-15T00:24:30;2.90;76.60
73777;DHT22;62088;50.240;2.696;2023-02-15T00:26:57;2.80;76.60
73777;DHT22;62088;50.240;2.696;2023-02-15T00:29:24;2.80;76.60
73777;DHT22;62088;50.240;2.696;2023-02-15T00:31:51;2.80;76.60
73777;DHT22;62088;50.240;2.696;2023-02-15T00:34:21;2.80;76.60
73777;DHT22;62088;50.240;2.696;2023-02-15T00:36:49;2.80;76.70
73777;DHT22;62088;50.240;2.696;2023-02-15T00:39:17;2.80;76.70
73777;DHT22;62088;50.240;2.696;2023-02-15T00:41:45;2.70;76.70
73777;DHT22;62088;50.240;2.696;2023-02-15T00:44:13;2.70;76.60
73777;DHT22;62088;50.240;2.696;2023-02-15T00:46:40;2.70;76.60
73777;DHT22;62088;50.240;2.696;2023-02-15T00:49:09;2.70;76.60
73777;DHT22;62088;50.240;2.696;2023-02-15T00:51:37;2.60;76.40
73777;DHT22;62088;50.240;2.696;2023-02-15T00:54:04;2.60;76.30
73777;DHT22;62088;50.240;2.696;2023-02-15T00:56:31;2.60;76.30
73777;DHT22;62088;50.240;2.696;2023-02-15T00:58:58;2.50;76.30
73777;DHT22;62088;50.240;2.696;2023-02-15T01:01:26;2.50;76.40
73777;DHT22;62088;50.240;2.696;2023-02-15T01:03:53;2.50;76.40
73777;DHT22;62088;50.240;2.696;2023-02-15T01:06:20;2.50;76.50
73777;DHT22;62088;50.240;2.696;2023-02-15T01:08:47;2.50;76.60
73777;DHT22;62088;50.240;2.696;2023-02-15T01:11:17;2.50;76.60
73777;DHT22;62088;50.240;2.696;2023-02-15T01:13:54;2.50;76.60
73777;DHT22;62088;50.240;2.696;2023-02-15T01:16:23;2.40;76.70
73777;DHT22;62088;50.240;2.696;2023-02-15T01:18:50;2.40;76.80
73777;DHT22;62088;50.240;2.696;2023-02-15T01:21:20;2.40;76.80
73777;DHT22;62088;50.240;2.696;2023-02-15T01:23:48;2.40;76.80
73777;DHT22;62088;50.240;2.696;2023-02-15T01:26:16;2.40;76.80
73777;DHT22;62088;50.240;2.696;2023-02-15T01:28:43;2.40;76.80
73777;DHT22;62088;50.240;2.696;2023-02-15T01:31:16;2.40;76.80
73777;DHT22;62088;50.240;2.696;2023-02-15T01:33:45;2.30;76.90
73777;DHT22;62088;50.240;2.696;2023-02-15T01:36:13;2.40;76.80
73777;DHT22;62088;50.240;2.696;2023-02-15T01:38:40;2.30;76.80
73777;DHT22;62088;50.240;2.696;2023-02-15T01:41:08;2.30;76.80
73777;DHT22;62088;50.240;2.696;2023-02-15T01:43:51;2.30;76.70
73777;DHT22;62088;50.240;2.696;2023-02-15T01:46:22;2.30;76.80
73777;DHT22;62088;50.240;2.696;2023-02-15T01:48:55;2.20;76.80
73777;DHT22;62088;50.240;2.696;2023-02-15T01:51:26;2.20;76.80
73777;DHT22;62088;50.240;2.696;2023-02-15T01:54:21;2.20;76.80
73777;DHT22;62088;50.240;2.696;2023-02-15T01:56:52;2.10;76.70
73777;DHT22;62088;50.240;2.696;2023-02-15T01:59:23;2.10;76.70
73777;DHT22;62088;50.240;2.696;2023-02-15T02:01:55;2.20;76.70
73777;DHT22;62088;50.240;2.696;2023-02-15T02:04:33;2.10;76.80
73777;DHT22;62088;50.240;2.696;2023-02-15T02:07:02;2.10;76.80
73777;DHT22;62088;50.240;2.696;2023-02-15T02:09:31;2.10;76.80
73777;DHT22;62088;50.240;2.696;2023-02-15T02:11:59;2.10;76.80
73777;DHT22;62088;50.240;2.696;2023-02-15T02:14:26;2.00;76.80
73777;DHT22;62088;50.240;2.696;2023-02-15T02:41:26;1.90;77.10
73777;DHT22;62088;50.240;2.696;2023-02-15T02:44:16;1.90;77.10
73777;DHT22;62088;50.240;2.696;2023-02-15T02:49:37;1.80;77.30
73777;DHT22;62088;50.240;2.696;2023-02-15T02:52:51;1.80;77.50
73777;DHT22;62088;50.240;2.696;2023-02-15T02:54:55;1.80;77.60
73777;DHT22;62088;50.240;2.696;2023-02-15T02:57:23;1.80;77.70
73777;DHT22;62088;50.240;2.696;2023-02-15T02:59:51;1.80;77.70
73777;DHT22;62088;50.240;2.696;2023-02-15T03:02:23;1.80;77.80
73777;DHT22;62088;50.240;2.696;2023-02-15T03:05:00;1.80;77.80
73777;DHT22;62088;50.240;2.696;2023-02-15T03:07:31;1.80;77.80
73777;DHT22;62088;50.240;2.696;2023-02-15T03:10:02;1.80;77.80
73777;DHT22;62088;50.240;2.696;2023-02-15T03:12:40;1.70;77.80
73777;DHT22;62088;50.240;2.696;2023-02-15T03:15:16;1.70;77.80
73777;DHT22;62088;50.240;2.696;2023-02-15T03:17:48;1.70;77.80
73777;DHT22;62088;50.240;2.696;2023-02-15T03:20:24;1.70;77.80
73777;DHT22;62088;50.240;2.696;2023-02-15T03:22:59;1.70;77.90
73777;DHT22;62088;50.240;2.696;2023-02-15T03:25:38;1.70;77.90
73777;DHT22;62088;50.240;2.696;2023-02-15T03:28:21;1.70;77.90
73777;DHT22;62088;50.240;2.696;2023-02-15T03:30:53;1.60;77.90
73777;DHT22;62088;50.240;2.696;2023-02-15T03:33:23;1.70;77.90
73777;DHT22;62088;50.240;2.696;2023-02-15T03:36:20;1.60;77.80
73777;DHT22;62088;50.240;2.696;2023-02-15T03:41:34;1.60;77.80
73777;DHT22;62088;50.240;2.696;2023-02-15T03:44:15;1.50;77.80
73777;DHT22;62088;50.240;2.696;2023-02-15T03:46:50;1.50;77.70
73777;DHT22;62088;50.240;2.696;2023-02-15T03:52:24;1.50;77.70
73777;DHT22;62088;50.240;2.696;2023-02-15T03:54:52;1.50;77.70
73777;DHT22;62088;50.240;2.696;2023-02-15T03:57:26;1.50;77.60
73777;DHT22;62088;50.240;2.696;2023-02-15T04:00:14;1.50;77.70
73777;DHT22;62088;50.240;2.696;2023-02-15T04:03:23;1.40;77.60
73777;DHT22;62088;50.240;2.696;2023-02-15T04:05:52;1.40;77.60
73777;DHT22;62088;50.240;2.696;2023-02-15T04:08:19;1.40;77.60
73777;DHT22;62088;50.240;2.696;2023-02-15T04:10:46;1.40;77.60
73777;DHT22;62088;50.240;2.696;2023-02-15T04:13:24;1.40;77.70
73777;DHT22;62088;50.240;2.696;2023-02-15T04:15:53;1.40;77.70
73777;DHT22;62088;50.240;2.696;2023-02-15T04:18:38;1.40;77.80
73777;DHT22;62088;50.240;2.696;2023-02-15T04:21:26;1.40;77.80
73777;DHT22;62088;50.240;2.696;2023-02-15T04:24:12;1.30;77.80
73777;DHT22;62088;50.240;2.696;2023-02-15T04:26:59;1.30;77.80
73777;DHT22;62088;50.240;2.696;2023-02-15T04:29:27;1.30;77.80
73777;DHT22;62088;50.240;2.696;2023-02-15T04:31:58;1.30;77.80
73777;DHT22;62088;50.240;2.696;2023-02-15T04:34:25;1.30;77.90
73777;DHT22;62088;50.240;2.696;2023-02-15T04:36:52;1.20;77.90
73777;DHT22;62088;50.240;2.696;2023-02-15T04:39:19;1.20;77.90
73777;DHT22;62088;50.240;2.696;2023-02-15T04:41:46;1.30;77.90
73777;DHT22;62088;50.240;2.696;2023-02-15T04:44:15;1.20;77.80
73777;DHT22;62088;50.240;2.696;2023-02-15T04:46:42;1.20;77.80
73777;DHT22;62088;50.240;2.696;2023-02-15T04:49:09;1.20;77.80
73777;DHT22;62088;50.240;2.696;2023-02-15T04:51:36;1.20;77.90
73777;DHT22;62088;50.240;2.696;2023-02-15T04:54:03;1.20;77.90
73777;DHT22;62088;50.240;2.696;2023-02-15T04:56:30;1.20;77.90
73777;DHT22;62088;50.240;2.696;2023-02-15T04:58:59;1.20;78.00
73777;DHT22;62088;50.240;2.696;2023-02-15T05:01:27;1.20;78.00
73777;DHT22;62088;50.240;2.696;2023-02-15T05:03:54;1.10;78.10
73777;DHT22;62088;50.240;2.696;2023-02-15T05:06:22;1.10;78.10
73777;DHT22;62088;50.240;2.696;2023-02-15T05:08:49;1.10;78.10
73777;DHT22;62088;50.240;2.696;2023-02-15T05:11:16;1.10;78.20
73777;DHT22;62088;50.240;2.696;2023-02-15T05:13:43;1.10;78.20
73777;DHT22;62088;50.240;2.696;2023-02-15T05:16:10;1.00;78.30
73777;DHT22;62088;50.240;2.696;2023-02-15T05:18:37;1.10;78.40
73777;DHT22;62088;50.240;2.696;2023-02-15T05:21:04;1.00;78.40
73777;DHT22;62088;50.240;2.696;2023-02-15T05:23:31;1.00;78.40
73777;DHT22;62088;50.240;2.696;2023-02-15T05:25:58;1.00;78.40
73777;DHT22;62088;50.240;2.696;2023-02-15T05:28:43;1.00;78.50
73777;DHT22;62088;50.240;2.696;2023-02-15T05:31:13;1.00;78.50
73777;DHT22;62088;50.240;2.696;2023-02-15T05:33:41;1.00;78.50
73777;DHT22;62088;50.240;2.696;2023-02-15T05:36:08;1.00;78.50
73777;DHT22;62088;50.240;2.696;2023-02-15T05:38:36;1.00;78.50
73777;DHT22;62088;50.240;2.696;2023-02-15T05:41:05;1.00;78.50
73777;DHT22;62088;50.240;2.696;2023-02-15T05:43:33;1.00;78.60
73777;DHT22;62088;50.240;2.696;2023-02-15T05:46:00;1.00;78.70
73777;DHT22;62088;50.240;2.696;2023-02-15T05:48:28;0.90;78.80
73777;DHT22;62088;50.240;2.696;2023-02-15T05:51:07;1.00;78.90
73777;DHT22;62088;50.240;2.696;2023-02-15T05:53:36;0.90;79.00
73777;DHT22;62088;50.240;2.696;2023-02-15T05:56:05;1.00;79.10
73777;DHT22;62088;50.240;2.696;2023-02-15T05:58:35;0.90;79.20
73777;DHT22;62088;50.240;2.696;2023-02-15T06:01:10;1.00;79.30
73777;DHT22;62088;50.240;2.696;2023-02-15T06:03:38;1.00;79.50
73777;DHT22;62088;50.240;2.696;2023-02-15T06:06:05;1.00;79.60
73777;DHT22;62088;50.240;2.696;2023-02-15T06:08:34;1.00;79.70
73777;DHT22;62088;50.240;2.696;2023-02-15T06:11:02;1.00;79.80
73777;DHT22;62088;50.240;2.696;2023-02-15T06:13:29;1.00;79.80
73777;DHT22;62088;50.240;2.696;2023-02-15T06:15:56;1.00;79.90
73777;DHT22;62088;50.240;2.696;2023-02-15T06:18:24;1.00;80.00
73777;DHT22;62088;50.240;2.696;2023-02-15T06:20:51;1.00;80.20
73777;DHT22;62088;50.240;2.696;2023-02-15T06:23:18;1.00;80.30
73777;DHT22;62088;50.240;2.696;2023-02-15T06:25:47;1.00;80.30
73777;DHT22;62088;50.240;2.696;2023-02-15T06:28:14;1.00;80.40
73777;DHT22;62088;50.240;2.696;2023-02-15T06:30:41;1.00;80.50
73777;DHT22;62088;50.240;2.696;2023-02-15T06:33:08;1.10;80.60
73777;DHT22;62088;50.240;2.696;2023-02-15T06:35:36;1.00;80.60
73777;DHT22;62088;50.240;2.696;2023-02-15T06:38:03;1.00;80.50
73777;DHT22;62088;50.240;2.696;2023-02-15T06:40:30;1.00;80.50
73777;DHT22;62088;50.240;2.696;2023-02-15T06:42:57;1.00;80.50
73777;DHT22;62088;50.240;2.696;2023-02-15T06:45:24;1.00;80.40
73777;DHT22;62088;50.240;2.696;2023-02-15T06:47:51;1.00;80.40
73777;DHT22;62088;50.240;2.696;2023-02-15T06:50:18;1.00;80.40
73777;DHT22;62088;50.240;2.696;2023-02-15T06:52:45;1.00;80.30
73777;DHT22;62088;50.240;2.696;2023-02-15T06:55:12;1.00;80.30
73777;DHT22;62088;50.240;2.696;2023-02-15T06:57:40;1.00;80.30
73777;DHT22;62088;50.240;2.696;2023-02-15T07:00:07;1.00;80.30
73777;DHT22;62088;50.240;2.696;2023-02-15T07:02:35;1.00;80.40
73777;DHT22;62088;50.240;2.696;2023-02-15T07:05:02;1.00;80.50
73777;DHT22;62088;50.240;2.696;2023-02-15T07:07:31;1.00;80.60
73777;DHT22;62088;50.240;2.696;2023-02-15T07:09:58;1.00;80.70
73777;DHT22;62088;50.240;2.696;2023-02-15T07:12:25;1.00;80.80
73777;DHT22;62088;50.240;2.696;2023-02-15T07:15:14;1.00;80.90
73777;DHT22;62088;50.240;2.696;2023-02-15T07:17:42;1.00;81.10
73777;DHT22;62088;50.240;2.696;2023-02-15T07:20:15;1.00;81.20
73777;DHT22;62088;50.240;2.696;2023-02-15T07:22:43;1.00;81.30
73777;DHT22;62088;50.240;2.696;2023-02-15T07:25:11;1.00;81.40
73777;DHT22;62088;50.240;2.696;2023-02-15T07:27:39;1.00;81.40
73777;DHT22;62088;50.240;2.696;2023-02-15T07:30:08;1.10;81.40
73777;DHT22;62088;50.240;2.696;2023-02-15T07:32:37;1.10;81.40
73777;DHT22;62088;50.240;2.696;2023-02-15T07:35:25;1.00;81.40
73777;DHT22;62088;50.240;2.696;2023-02-15T07:37:52;1.00;81.40
73777;DHT22;62088;50.240;2.696;2023-02-15T07:40:20;1.00;81.50
73777;DHT22;62088;50.240;2.696;2023-02-15T07:42:50;1.10;81.60
73777;DHT22;62088;50.240;2.696;2023-02-15T07:45:20;1.10;81.80
73777;DHT22;62088;50.240;2.696;2023-02-15T07:47:47;1.10;81.90
73777;DHT22;62088;50.240;2.696;2023-02-15T07:50:15;1.20;82.10
73777;DHT22;62088;50.240;2.696;2023-02-15T07:52:43;1.20;82.30
73777;DHT22;62088;50.240;2.696;2023-02-15T07:55:10;1.30;82.50
73777;DHT22;62088;50.240;2.696;2023-02-15T07:57:46;1.40;82.60
73777;DHT22;62088;50.240;2.696;2023-02-15T08:00:14;1.40;82.70
73777;DHT22;62088;50.240;2.696;2023-02-15T08:02:47;1.40;82.80
73777;DHT22;62088;50.240;2.696;2023-02-15T08:05:14;1.50;82.90
73777;DHT22;62088;50.240;2.696;2023-02-15T08:07:43;1.50;83.00
73777;DHT22;62088;50.240;2.696;2023-02-15T08:10:10;1.50;83.00
73777;DHT22;62088;50.240;2.696;2023-02-15T08:12:57;1.60;83.10
73777;DHT22;62088;50.240;2.696;2023-02-15T08:15:24;1.60;83.20
73777;DHT22;62088;50.240;2.696;2023-02-15T08:17:51;1.60;83.30
73777;DHT22;62088;50.240;2.696;2023-02-15T08:20:18;1.70;83.40
73777;DHT22;62088;50.240;2.696;2023-02-15T08:22:45;1.70;83.50
73777;DHT22;62088;50.240;2.696;2023-02-15T08:25:12;1.80;83.60
73777;DHT22;62088;50.240;2.696;2023-02-15T08:27:39;1.90;83.70
73777;DHT22;62088;50.240;2.696;2023-02-15T08:30:07;1.90;83.90
73777;DHT22;62088;50.240;2.696;2023-02-15T08:32:34;2.00;84.00
73777;DHT22;62088;50.240;2.696;2023-02-15T08:35:01;2.10;84.20
73777;DHT22;62088;50.240;2.696;2023-02-15T08:37:28;2.20;84.30
73777;DHT22;62088;50.240;2.696;2023-02-15T08:39:55;2.20;84.50
73777;DHT22;62088;50.240;2.696;2023-02-15T08:42:22;2.40;84.60
73777;DHT22;62088;50.240;2.696;2023-02-15T08:44:49;2.40;84.70
73777;DHT22;62088;50.240;2.696;2023-02-15T08:47:18;2.50;84.80
73777;DHT22;62088;50.240;2.696;2023-02-15T08:49:45;2.50;84.90
73777;DHT22;62088;50.240;2.696;2023-02-15T08:52:12;2.60;85.00
73777;DHT22;62088;50.240;2.696;2023-02-15T08:54:39;2.70;85.10
73777;DHT22;62088;50.240;2.696;2023-02-15T08:57:06;2.80;85.20
73777;DHT22;62088;50.240;2.696;2023-02-15T08:59:33;2.90;85.50
73777;DHT22;62088;50.240;2.696;2023-02-15T09:02:00;3.00;85.50
73777;DHT22;62088;50.240;2.696;2023-02-15T09:04:28;3.00;85.60
73777;DHT22;62088;50.240;2.696;2023-02-15T09:06:55;3.20;85.70
73777;DHT22;62088;50.240;2.696;2023-02-15T09:09:22;3.20;85.70
73777;DHT22;62088;50.240;2.696;2023-02-15T09:11:50;3.30;85.80
73777;DHT22;62088;50.240;2.696;2023-02-15T09:14:25;3.40;85.90
73777;DHT22;62088;50.240;2.696;2023-02-15T09:16:53;3.50;86.10
73777;DHT22;62088;50.240;2.696;2023-02-15T09:19:22;3.50;86.20
73777;DHT22;62088;50.240;2.696;2023-02-15T09:21:49;3.70;86.30
73777;DHT22;62088;50.240;2.696;2023-02-15T09:24:17;3.80;86.40
73777;DHT22;62088;50.240;2.696;2023-02-15T09:26:46;3.90;86.50
73777;DHT22;62088;50.240;2.696;2023-02-15T09:29:15;4.00;86.60
73777;DHT22;62088;50.240;2.696;2023-02-15T09:31:47;4.10;86.60
73777;DHT22;62088;50.240;2.696;2023-02-15T09:34:17;4.20;86.70
73777;DHT22;62088;50.240;2.696;2023-02-15T09:36:45;4.40;86.50
73777;DHT22;62088;50.240;2.696;2023-02-15T09:39:20;4.40;86.30
73777;DHT22;62088;50.240;2.696;2023-02-15T09:45:22;4.60;86.20
73777;DHT22;62088;50.240;2.696;2023-02-15T09:56:14;5.10;86.10
73777;DHT22;62088;50.240;2.696;2023-02-15T10:10:18;5.70;85.10
73777;DHT22;62088;50.240;2.696;2023-02-15T10:18:51;6.00;83.90
73777;DHT22;62088;50.240;2.696;2023-02-15T10:26:46;6.30;83.00
73777;DHT22;62088;50.240;2.696;2023-02-15T10:29:35;6.40;83.00
73777;DHT22;62088;50.240;2.696;2023-02-15T10:32:25;6.40;83.00
73777;DHT22;62088;50.240;2.696;2023-02-15T10:40:18;6.70;82.90
73777;DHT22;62088;50.240;2.696;2023-02-15T10:45:31;6.90;82.20
73777;DHT22;62088;50.240;2.696;2023-02-15T10:51:02;7.00;82.10
73777;DHT22;62088;50.240;2.696;2023-02-15T10:53:36;7.10;82.10
73777;DHT22;62088;50.240;2.696;2023-02-15T10:59:06;7.40;82.10
73777;DHT22;62088;50.240;2.696;2023-02-15T11:07:16;7.90;81.40
73777;DHT22;62088;50.240;2.696;2023-02-15T11:10:00;8.00;81.10
73777;DHT22;62088;50.240;2.696;2023-02-15T11:12:29;8.20;80.90
73777;DHT22;62088;50.240;2.696;2023-02-15T11:17:43;8.40;80.50
73777;DHT22;62088;50.240;2.696;2023-02-15T11:20:23;8.50;80.10
73777;DHT22;62088;50.240;2.696;2023-02-15T11:22:51;8.50;79.80
73777;DHT22;62088;50.240;2.696;2023-02-15T11:25:31;8.70;79.50
73777;DHT22;62088;50.240;2.696;2023-02-15T11:28:03;8.80;79.30
73777;DHT22;62088;50.240;2.696;2023-02-15T11:30:42;8.90;79.20
73777;DHT22;62088;50.240;2.696;2023-02-15T11:33:30;8.90;78.90
73777;DHT22;62088;50.240;2.696;2023-02-15T11:38:33;9.10;78.70
73777;DHT22;62088;50.240;2.696;2023-02-15T11:41:07;9.20;78.40
73777;DHT22;62088;50.240;2.696;2023-02-15T11:43:58;9.30;78.10
73777;DHT22;62088;50.240;2.696;2023-02-15T11:46:30;9.40;77.80
73777;DHT22;62088;50.240;2.696;2023-02-15T11:48:57;9.50;77.60
73777;DHT22;62088;50.240;2.696;2023-02-15T11:51:25;9.70;77.30
73777;DHT22;62088;50.240;2.696;2023-02-15T11:53:54;9.80;77.10
73777;DHT22;62088;50.240;2.696;2023-02-15T11:56:24;9.80;76.90
73777;DHT22;62088;50.240;2.696;2023-02-15T11:59:02;9.90;76.80
73777;DHT22;62088;50.240;2.696;2023-02-15T12:01:33;10.00;76.80
73777;DHT22;62088;50.240;2.696;2023-02-15T12:06:46;10.20;76.90
73777;DHT22;62088;50.240;2.696;2023-02-15T12:09:30;10.20;76.80
73777;DHT22;62088;50.240;2.696;2023-02-15T12:12:21;10.30;76.20
73777;DHT22;62088;50.240;2.696;2023-02-15T12:14:57;10.40;75.30
73777;DHT22;62088;50.240;2.696;2023-02-15T12:17:37;10.40;75.10
73777;DHT22;62088;50.240;2.696;2023-02-15T12:22:51;10.50;74.90
73777;DHT22;62088;50.240;2.696;2023-02-15T12:25:23;10.60;75.00
73777;DHT22;62088;50.240;2.696;2023-02-15T12:27:52;10.60;74.80
73777;DHT22;62088;50.240;2.696;2023-02-15T12:30:32;10.70;74.50
73777;DHT22;62088;50.240;2.696;2023-02-15T12:33:29;10.70;74.50
73777;DHT22;62088;50.240;2.696;2023-02-15T12:36:09;10.70;74.70
73777;DHT22;62088;50.240;2.696;2023-02-15T12:38:38;10.80;74.70
73777;DHT22;62088;50.240;2.696;2023-02-15T12:41:22;10.80;74.70
73777;DHT22;62088;50.240;2.696;2023-02-15T12:44:09;10.90;74.70
73777;DHT22;62088;50.240;2.696;2023-02-15T12:46:42;10.90;74.60
73777;DHT22;62088;50.240;2.696;2023-02-15T12:49:22;10.90;74.20
73777;DHT22;62088;50.240;2.696;2023-02-15T12:54:49;10.90;73.90
73777;DHT22;62088;50.240;2.696;2023-02-15T12:57:32;10.90;73.80
73777;DHT22;62088;50.240;2.696;2023-02-15T13:00:01;10.90;74.00
73777;DHT22;62088;50.240;2.696;2023-02-15T13:02:46;11.00;74.00
73777;DHT22;62088;50.240;2.696;2023-02-15T13:05:18;11.00;73.90
73777;DHT22;62088;50.240;2.696;2023-02-15T13:07:53;11.10;73.70
73777;DHT22;62088;50.240;2.696;2023-02-15T13:12:52;11.10;73.20
73777;DHT22;62088;50.240;2.696;2023-02-15T13:15:44;11.10;72.80
73777;DHT22;62088;50.240;2.696;2023-02-15T13:18:18;11.10;72.60
73777;DHT22;62088;50.240;2.696;2023-02-15T13:20:46;11.00;72.60
73777;DHT22;62088;50.240;2.696;2023-02-15T13:23:33;11.10;72.80
73777;DHT22;62088;50.240;2.696;2023-02-15T13:26:04;11.10;72.80
73777;DHT22;62088;50.240;2.696;2023-02-15T13:28:39;11.10;72.60
73777;DHT22;62088;50.240;2.696;2023-02-15T13:31:17;11.20;72.70
73777;DHT22;62088;50.240;2.696;2023-02-15T13:34:10;11.20;72.70
73777;DHT22;62088;50.240;2.696;2023-02-15T13:36:48;11.20;72.50
73777;DHT22;62088;50.240;2.696;2023-02-15T13:52:25;11.30;71.80
73777;DHT22;62088;50.240;2.696;2023-02-15T14:11:31;11.10;72.20
73777;DHT22;62088;50.240;2.696;2023-02-15T14:17:06;11.10;72.50
73777;DHT22;62088;50.240;2.696;2023-02-15T14:19:47;11.10;72.60
73777;DHT22;62088;50.240;2.696;2023-02-15T14:22:39;11.10;72.80
73777;DHT22;62088;50.240;2.696;2023-02-15T14:28:06;11.10;73.20
73777;DHT22;62088;50.240;2.696;2023-02-15T14:30:47;11.00;73.20
73777;DHT22;62088;50.240;2.696;2023-02-15T14:36:05;10.90;73.50
73777;DHT22;62088;50.240;2.696;2023-02-15T14:41:15;10.90;73.90
73777;DHT22;62088;50.240;2.696;2023-02-15T15:02:17;10.80;74.80
73777;DHT22;62088;50.240;2.696;2023-02-15T15:07:21;10.80;74.60
73777;DHT22;62088;50.240;2.696;2023-02-15T15:09:59;10.80;74.80
73777;DHT22;62088;50.240;2.696;2023-02-15T15:15:01;10.80;74.50
73777;DHT22;62088;50.240;2.696;2023-02-15T15:28:52;10.90;73.90
73777;DHT22;62088;50.240;2.696;2023-02-15T15:31:27;10.90;74.00
73777;DHT22;62088;50.240;2.696;2023-02-15T15:42:48;11.00;73.70
73777;DHT22;62088;50.240;2.696;2023-02-15T15:50:41;11.00;73.10
73777;DHT22;62088;50.240;2.696;2023-02-15T15:53:38;11.00;73.10
73777;DHT22;62088;50.240;2.696;2023-02-15T15:56:15;11.00;73.10
73777;DHT22;62088;50.240;2.696;2023-02-15T15:58:51;11.00;73.10
73777;DHT22;62088;50.240;2.696;2023-02-15T16:01:31;11.00;73.10
73777;DHT22;62088;50.240;2.696;2023-02-15T16:04:01;11.00;73.20
73777;DHT22;62088;50.240;2.696;2023-02-15T16:06:36;11.00;73.20
73777;DHT22;62088;50.240;2.696;2023-02-15T16:11:41;11.00;73.40
73777;DHT22;62088;50.240;2.696;2023-02-15T16:14:24;11.00;73.40
73777;DHT22;62088;50.240;2.696;2023-02-15T16:16:56;10.90;73.40
73777;DHT22;62088;50.240;2.696;2023-02-15T16:19:27;10.90;73.40
73777;DHT22;62088;50.240;2.696;2023-02-15T16:21:55;10.90;73.40
73777;DHT22;62088;50.240;2.696;2023-02-15T16:29:45;10.90;73.40
73777;DHT22;62088;50.240;2.696;2023-02-15T16:32:31;10.80;73.50
73777;DHT22;62088;50.240;2.696;2023-02-15T16:35:02;10.80;73.60
73777;DHT22;62088;50.240;2.696;2023-02-15T16:37:34;10.80;73.70
73777;DHT22;62088;50.240;2.696;2023-02-15T16:40:01;10.80;73.80
73777;DHT22;62088;50.240;2.696;2023-02-15T16:42:28;10.70;73.80
73777;DHT22;62088;50.240;2.696;2023-02-15T16:45:08;10.70;73.90
73777;DHT22;62088;50.240;2.696;2023-02-15T16:47:41;10.60;74.00
73777;DHT22;62088;50.240;2.696;2023-02-15T16:50:23;10.50;74.00
73777;DHT22;62088;50.240;2.696;2023-02-15T16:52:51;10.50;74.20
73777;DHT22;62088;50.240;2.696;2023-02-15T16:55:21;10.40;74.20
73777;DHT22;62088;50.240;2.696;2023-02-15T16:57:51;10.30;74.30
73777;DHT22;62088;50.240;2.696;2023-02-15T17:00:32;10.20;74.40
73777;DHT22;62088;50.240;2.696;2023-02-15T17:03:19;10.10;74.50
73777;DHT22;62088;50.240;2.696;2023-02-15T17:05:52;10.00;74.60
73777;DHT22;62088;50.240;2.696;2023-02-15T17:13:26;9.80;75.00
73777;DHT22;62088;50.240;2.696;2023-02-15T17:18:38;9.70;75.20
73777;DHT22;62088;50.240;2.696;2023-02-15T17:21:12;9.60;75.30
73777;DHT22;62088;50.240;2.696;2023-02-15T17:23:43;9.50;75.40
73777;DHT22;62088;50.240;2.696;2023-02-15T17:29:27;9.40;75.70
73777;DHT22;62088;50.240;2.696;2023-02-15T17:31:56;9.40;75.70
73777;DHT22;62088;50.240;2.696;2023-02-15T17:39:49;9.10;76.00
73777;DHT22;62088;50.240;2.696;2023-02-15T17:42:16;9.10;76.10
73777;DHT22;62088;50.240;2.696;2023-02-15T17:44:43;9.10;76.10
73777;DHT22;62088;50.240;2.696;2023-02-15T17:47:16;9.00;76.10
73777;DHT22;62088;50.240;2.696;2023-02-15T17:49:44;8.90;76.00
73777;DHT22;62088;50.240;2.696;2023-02-15T17:52:13;8.90;76.00
73777;DHT22;62088;50.240;2.696;2023-02-15T17:54:43;8.80;76.00
73777;DHT22;62088;50.240;2.696;2023-02-15T17:57:29;8.80;75.90
73777;DHT22;62088;50.240;2.696;2023-02-15T17:59:57;8.70;76.00
73777;DHT22;62088;50.240;2.696;2023-02-15T18:02:43;8.60;76.00
73777;DHT22;62088;50.240;2.696;2023-02-15T18:05:28;8.60;75.90
73777;DHT22;62088;50.240;2.696;2023-02-15T18:08:16;8.60;76.00
73777;DHT22;62088;50.240;2.696;2023-02-15T18:11:02;8.50;75.90
73777;DHT22;62088;50.240;2.696;2023-02-15T18:13:48;8.50;76.00
73777;DHT22;62088;50.240;2.696;2023-02-15T18:16:20;8.40;76.00
73777;DHT22;62088;50.240;2.696;2023-02-15T18:18:48;8.40;76.10
73777;DHT22;62088;50.240;2.696;2023-02-15T18:21:16;8.30;76.20
73777;DHT22;62088;50.240;2.696;2023-02-15T18:23:43;8.20;76.30
73777;DHT22;62088;50.240;2.696;2023-02-15T18:26:16;8.20;76.30
73777;DHT22;62088;50.240;2.696;2023-02-15T18:28:43;8.20;76.40
73777;DHT22;62088;50.240;2.696;2023-02-15T18:31:11;8.10;76.50
73777;DHT22;62088;50.240;2.696;2023-02-15T18:36:16;8.00;76.60
73777;DHT22;62088;50.240;2.696;2023-02-15T18:38:44;7.90;76.60
73777;DHT22;62088;50.240;2.696;2023-02-15T18:41:18;7.90;76.70
73777;DHT22;62088;50.240;2.696;2023-02-15T18:43:46;7.90;76.80
73777;DHT22;62088;50.240;2.696;2023-02-15T18:46:15;7.80;76.80
73777;DHT22;62088;50.240;2.696;2023-02-15T18:48:43;7.80;76.80
73777;DHT22;62088;50.240;2.696;2023-02-15T18:51:19;7.70;76.90
73777;DHT22;62088;50.240;2.696;2023-02-15T18:53:50;7.70;76.90
73777;DHT22;62088;50.240;2.696;2023-02-15T18:56:20;7.60;77.00
73777;DHT22;62088;50.240;2.696;2023-02-15T18:58:49;7.60;76.90
73777;DHT22;62088;50.240;2.696;2023-02-15T19:01:18;7.60;76.90
73777;DHT22;62088;50.240;2.696;2023-02-15T19:03:47;7.50;76.90
73777;DHT22;62088;50.240;2.696;2023-02-15T19:06:18;7.50;76.90
73777;DHT22;62088;50.240;2.696;2023-02-15T19:08:47;7.40;77.00
73777;DHT22;62088;50.240;2.696;2023-02-15T19:11:20;7.40;76.90
73777;DHT22;62088;50.240;2.696;2023-02-15T19:13:50;7.30;76.90
73777;DHT22;62088;50.240;2.696;2023-02-15T19:18:53;7.30;77.00
73777;DHT22;62088;50.240;2.696;2023-02-15T19:21:21;7.20;76.90
73777;DHT22;62088;50.240;2.696;2023-02-15T19:24:00;7.20;76.90
73777;DHT22;62088;50.240;2.696;2023-02-15T19:26:29;7.20;76.90
73777;DHT22;62088;50.240;2.696;2023-02-15T19:29:13;7.10;76.90
73777;DHT22;62088;50.240;2.696;2023-02-15T19:31:41;7.00;76.90
73777;DHT22;62088;50.240;2.696;2023-02-15T19:34:13;7.00;76.90
73777;DHT22;62088;50.240;2.696;2023-02-15T19:36:49;7.00;76.90
73777;DHT22;62088;50.240;2.696;2023-02-15T19:39:29;6.90;77.00
73777;DHT22;62088;50.240;2.696;2023-02-15T19:41:59;6.90;77.00
73777;DHT22;62088;50.240;2.696;2023-02-15T19:44:26;6.80;77.00
73777;DHT22;62088;50.240;2.696;2023-02-15T19:46:53;6.80;77.00
73777;DHT22;62088;50.240;2.696;2023-02-15T19:49:20;6.80;77.00
73777;DHT22;62088;50.240;2.696;2023-02-15T19:51:47;6.70;77.10
73777;DHT22;62088;50.240;2.696;2023-02-15T19:54:31;6.60;77.20
73777;DHT22;62088;50.240;2.696;2023-02-15T19:56:59;6.60;77.30